createdAt,value
2018-09-24T00:00:42.155Z,1006.81
2018-09-24T00:01:42.128Z,1006.82
2018-09-24T00:02:42.120Z,1006.86
2018-09-24T00:03:42.112Z,1006.87
2018-09-24T00:04:42.119Z,1006.85
2018-09-24T00:05:42.136Z,1006.90
2018-09-24T00:06:42.077Z,1006.98
2018-09-24T00:07:42.062Z,1007.02
2018-09-24T00:08:42.050Z,1007.04
2018-09-24T00:09:42.045Z,1007.04
2018-09-24T00:10:42.061Z,1007.11
2018-09-24T00:11:42.103Z,1007.11
2018-09-24T00:12:42.008Z,1007.12
2018-09-24T00:13:42.001Z,1007.10
2018-09-24T00:14:41.995Z,1007.12
2018-09-24T00:15:41.973Z,1007.13
2018-09-24T00:16:42.005Z,1007.15
2018-09-24T00:17:42.028Z,1007.17
2018-09-24T00:18:41.945Z,1007.16
2018-09-24T00:19:41.932Z,1007.14
2018-09-24T00:20:41.922Z,1007.13
2018-09-24T00:21:41.910Z,1007.13
2018-09-24T00:22:41.894Z,1007.15
2018-09-24T00:23:41.941Z,1007.13
2018-09-24T00:24:41.877Z,1007.20
2018-09-24T00:25:41.866Z,1007.24
2018-09-24T00:26:41.849Z,1007.23
2018-09-24T00:27:41.843Z,1007.23
2018-09-24T00:28:41.832Z,1007.24
2018-09-24T00:29:41.873Z,1007.27
2018-09-24T00:30:41.809Z,1007.27
2018-09-24T00:31:41.800Z,1007.28
2018-09-24T00:32:41.786Z,1007.30
2018-09-24T00:33:41.783Z,1007.31
2018-09-24T00:34:41.762Z,1007.36
2018-09-24T00:35:41.815Z,1007.38
2018-09-24T00:36:41.780Z,1007.42
2018-09-24T00:37:41.735Z,1007.46
2018-09-24T00:38:41.719Z,1007.47
2018-09-24T00:39:41.747Z,1007.50
2018-09-24T00:40:41.710Z,1007.52
2018-09-24T00:41:41.723Z,1007.59
2018-09-24T00:42:41.693Z,1007.57
2018-09-24T00:43:41.666Z,1007.56
2018-09-24T00:44:41.659Z,1007.59
2018-09-24T00:45:41.651Z,1007.57
2018-09-24T00:46:41.637Z,1007.57
2018-09-24T00:47:41.674Z,1007.65
2018-09-24T00:48:41.612Z,1007.62
2018-09-24T00:49:41.611Z,1007.62
2018-09-24T00:50:41.624Z,1007.65
2018-09-24T00:51:41.626Z,1007.62
2018-09-24T00:52:41.568Z,1007.63
2018-09-24T00:53:41.606Z,1007.60
2018-09-24T00:54:41.568Z,1007.58
2018-09-24T00:55:41.545Z,1007.62
2018-09-24T00:56:41.522Z,1007.68
2018-09-24T00:57:41.508Z,1007.63
2018-09-24T00:58:41.500Z,1007.68
2018-09-24T00:59:41.520Z,1007.73
2018-09-24T01:00:41.474Z,1007.69
2018-09-24T01:01:41.500Z,1007.75
2018-09-24T01:02:41.454Z,1007.75
2018-09-24T01:03:41.442Z,1007.82
2018-09-24T01:04:41.443Z,1007.83
2018-09-24T01:05:41.459Z,1007.84
2018-09-24T01:06:41.411Z,1007.89
2018-09-24T01:07:41.440Z,1007.86
2018-09-24T01:08:41.387Z,1007.83
2018-09-24T01:09:41.379Z,1007.85
2018-09-24T01:10:41.370Z,1007.88
2018-09-24T01:11:41.395Z,1007.88
2018-09-24T01:12:41.351Z,1007.95
2018-09-24T01:13:41.352Z,1007.92
2018-09-24T01:14:41.325Z,1007.96
2018-09-24T01:15:41.307Z,1008.03
2018-09-24T01:16:41.301Z,1008.00
2018-09-24T01:17:41.328Z,1008.01
2018-09-24T01:18:41.274Z,1008.04
2018-09-24T01:19:41.280Z,1008.06
2018-09-24T01:20:41.252Z,1008.04
2018-09-24T01:21:41.242Z,1008.08
2018-09-24T01:22:41.241Z,1008.08
2018-09-24T01:23:41.260Z,1008.07
2018-09-24T01:24:41.207Z,1008.10
2018-09-24T01:25:41.214Z,1008.16
2018-09-24T01:26:41.185Z,1008.12
2018-09-24T01:27:41.179Z,1008.15
2018-09-24T01:28:41.186Z,1008.19
2018-09-24T01:29:41.195Z,1008.21
2018-09-24T01:30:41.141Z,1008.24
2018-09-24T01:31:41.140Z,1008.25
2018-09-24T01:32:41.144Z,1008.23
2018-09-24T01:33:41.110Z,1008.22
2018-09-24T01:34:41.100Z,1008.25
2018-09-24T01:35:41.121Z,1008.26
2018-09-24T01:36:41.076Z,1008.30
2018-09-24T01:37:41.074Z,1008.29
2018-09-24T01:38:41.093Z,1008.34
2018-09-24T01:39:41.046Z,1008.29
2018-09-24T01:40:41.043Z,1008.28
2018-09-24T01:41:41.073Z,1008.33
2018-09-24T01:42:41.011Z,1008.36
2018-09-24T01:43:40.999Z,1008.37
2018-09-24T01:44:41.023Z,1008.41
2018-09-24T01:45:40.976Z,1008.37
2018-09-24T01:46:40.976Z,1008.42
2018-09-24T01:47:41.004Z,1008.43
2018-09-24T01:48:40.946Z,1008.43
2018-09-24T01:49:40.936Z,1008.47
2018-09-24T01:50:40.950Z,1008.52
2018-09-24T01:51:40.916Z,1008.54
2018-09-24T01:52:40.912Z,1008.56
2018-09-24T01:53:40.936Z,1008.59
2018-09-24T01:54:40.880Z,1008.59
2018-09-24T01:55:40.871Z,1008.64
2018-09-24T01:56:40.883Z,1008.63
2018-09-24T01:57:40.846Z,1008.63
2018-09-24T01:58:40.836Z,1008.69
2018-09-24T01:59:40.868Z,1008.71
2018-09-24T02:00:40.811Z,1008.71
2018-09-24T02:01:40.808Z,1008.71
2018-09-24T02:02:40.812Z,1008.72
2018-09-24T02:03:40.789Z,1008.88
2018-09-24T02:04:40.785Z,1008.90
2018-09-24T02:05:40.811Z,1008.91
2018-09-24T02:06:40.755Z,1008.94
2018-09-24T02:07:40.742Z,1008.87
2018-09-24T02:08:40.758Z,1008.91
2018-09-24T02:09:40.734Z,1009.01
2018-09-24T02:10:40.700Z,1008.96
2018-09-24T02:11:40.730Z,1008.97
2018-09-24T02:12:40.683Z,1008.97
2018-09-24T02:13:40.675Z,1008.98
2018-09-24T02:14:40.671Z,1008.95
2018-09-24T02:15:40.658Z,1009.00
2018-09-24T02:16:40.641Z,1008.96
2018-09-24T02:17:40.680Z,1009.00
2018-09-24T02:18:40.619Z,1009.03
2018-09-24T02:19:40.602Z,1009.01
2018-09-24T02:20:40.595Z,1009.01
2018-09-24T02:21:40.594Z,1009.01
2018-09-24T02:22:40.592Z,1009.01
2018-09-24T02:23:40.616Z,1009.01
2018-09-24T02:24:40.546Z,1009.03
2018-09-24T02:25:40.540Z,1009.03
2018-09-24T02:26:40.531Z,1009.02
2018-09-24T02:27:40.514Z,1009.09
2018-09-24T02:28:40.529Z,1009.05
2018-09-24T02:29:40.527Z,1009.07
2018-09-24T02:30:40.483Z,1009.00
2018-09-24T02:31:40.486Z,1008.99
2018-09-24T02:32:40.463Z,1009.02
2018-09-24T02:33:40.460Z,1009.08
2018-09-24T02:34:40.459Z,1009.03
2018-09-24T02:35:40.459Z,1009.03
2018-09-24T02:36:40.425Z,1009.09
2018-09-24T02:37:40.418Z,1009.11
2018-09-24T02:38:40.444Z,1009.11
2018-09-24T02:39:40.395Z,1009.15
2018-09-24T02:40:40.393Z,1009.12
2018-09-24T02:41:40.406Z,1009.10
2018-09-24T02:42:40.362Z,1009.15
2018-09-24T02:43:40.344Z,1009.19
2018-09-24T02:44:40.330Z,1009.22
2018-09-24T02:45:40.325Z,1009.26
2018-09-24T02:46:40.318Z,1009.23
2018-09-24T02:47:40.345Z,1009.24
2018-09-24T02:48:40.307Z,1009.30
2018-09-24T02:49:40.292Z,1009.28
2018-09-24T02:50:40.315Z,1009.36
2018-09-24T02:51:40.333Z,1009.34
2018-09-24T02:52:40.262Z,1009.37
2018-09-24T02:53:40.276Z,1009.33
2018-09-24T02:54:40.229Z,1009.37
2018-09-24T02:55:40.211Z,1009.39
2018-09-24T02:56:40.200Z,1009.40
2018-09-24T02:57:40.222Z,1009.42
2018-09-24T02:58:40.180Z,1009.41
2018-09-24T02:59:40.199Z,1009.39
2018-09-24T03:00:40.154Z,1009.44
2018-09-24T03:01:40.140Z,1009.46
2018-09-24T03:02:40.150Z,1009.46
2018-09-24T03:03:40.118Z,1009.46
2018-09-24T03:04:40.113Z,1009.49
2018-09-24T03:05:40.129Z,1009.46
2018-09-24T03:06:40.090Z,1009.47
2018-09-24T03:07:40.075Z,1009.48
2018-09-24T03:08:40.081Z,1009.47
2018-09-24T03:09:40.073Z,1009.47
2018-09-24T03:10:40.042Z,1009.52
2018-09-24T03:11:40.086Z,1009.51
2018-09-24T03:12:40.018Z,1009.51
2018-09-24T03:13:40.010Z,1009.53
2018-09-24T03:14:40.005Z,1009.55
2018-09-24T03:15:39.998Z,1009.54
2018-09-24T03:16:39.980Z,1009.59
2018-09-24T03:17:40.016Z,1009.57
2018-09-24T03:18:39.980Z,1009.60
2018-09-24T03:19:39.945Z,1009.63
2018-09-24T03:20:39.934Z,1009.69
2018-09-24T03:21:39.938Z,1009.69
2018-09-24T03:22:39.911Z,1009.67
2018-09-24T03:23:39.935Z,1009.66
2018-09-24T03:24:39.886Z,1009.71
2018-09-24T03:25:39.887Z,1009.72
2018-09-24T03:26:39.879Z,1009.76
2018-09-24T03:27:39.900Z,1009.75
2018-09-24T03:28:39.862Z,1009.76
2018-09-24T03:29:39.879Z,1009.76
2018-09-24T03:30:39.826Z,1009.74
2018-09-24T03:31:39.822Z,1009.75
2018-09-24T03:32:39.805Z,1009.71
2018-09-24T03:33:39.790Z,1009.75
2018-09-24T03:34:39.779Z,1009.78
2018-09-24T03:35:39.826Z,1009.75
2018-09-24T03:36:39.769Z,1009.77
2018-09-24T03:37:39.758Z,1009.78
2018-09-24T03:38:39.739Z,1009.79
2018-09-24T03:39:39.728Z,1009.85
2018-09-24T03:40:39.709Z,1009.82
2018-09-24T03:41:39.729Z,1009.87
2018-09-24T03:42:39.687Z,1009.87
2018-09-24T03:43:39.678Z,1009.97
2018-09-24T03:44:39.682Z,1009.97
2018-09-24T03:45:39.653Z,1009.99
2018-09-24T03:46:39.641Z,1010.01
2018-09-24T03:47:39.661Z,1010.03
2018-09-24T03:48:39.619Z,1010.00
2018-09-24T03:49:39.616Z,1010.00
2018-09-24T03:50:39.598Z,1010.06
2018-09-24T03:51:39.588Z,1010.02
2018-09-24T03:52:39.577Z,1010.06
2018-09-24T03:53:39.604Z,1010.02
2018-09-24T03:54:39.573Z,1010.05
2018-09-24T03:55:39.548Z,1010.01
2018-09-24T03:56:39.531Z,1010.03
2018-09-24T03:57:39.532Z,1010.06
2018-09-24T03:58:39.509Z,1010.04
2018-09-24T03:59:39.547Z,1010.05
2018-09-24T04:00:39.491Z,1010.00
2018-09-24T04:01:39.483Z,1010.09
2018-09-24T04:02:39.476Z,1010.03
2018-09-24T04:03:39.455Z,1010.10
2018-09-24T04:04:39.468Z,1010.11
2018-09-24T04:05:39.467Z,1010.13
2018-09-24T04:06:39.422Z,1010.16
2018-09-24T04:07:39.417Z,1010.19
2018-09-24T04:08:39.408Z,1010.20
2018-09-24T04:09:39.448Z,1010.27
2018-09-24T04:10:39.382Z,1010.27
2018-09-24T04:11:39.633Z,1010.32
2018-09-24T04:12:39.432Z,1010.29
2018-09-24T04:13:39.487Z,1010.34
2018-09-24T04:14:39.360Z,1010.36
2018-09-24T04:15:39.414Z,1010.33
2018-09-24T04:16:39.320Z,1010.39
2018-09-24T04:17:39.347Z,1010.42
2018-09-24T04:18:39.295Z,1010.40
2018-09-24T04:19:39.368Z,1010.42
2018-09-24T04:20:39.273Z,1010.39
2018-09-24T04:21:39.272Z,1010.44
2018-09-24T04:22:39.297Z,1010.45
2018-09-24T04:23:39.322Z,1010.38
2018-09-24T04:24:39.232Z,1010.40
2018-09-24T04:25:39.263Z,1010.38
2018-09-24T04:26:39.207Z,1010.41
2018-09-24T04:27:39.195Z,1010.42
2018-09-24T04:28:48.148Z,1010.32
2018-09-24T04:29:39.170Z,1010.39
2018-09-24T04:30:39.160Z,1010.37
2018-09-24T04:31:39.160Z,1010.37
2018-09-24T04:32:39.258Z,1010.43
2018-09-24T04:33:39.188Z,1010.44
2018-09-24T04:34:39.183Z,1010.48
2018-09-24T04:35:39.139Z,1010.55
2018-09-24T04:36:39.136Z,1010.54
2018-09-24T04:37:39.166Z,1010.56
2018-09-24T04:38:39.080Z,1010.61
2018-09-24T04:39:39.186Z,1010.63
2018-09-24T04:40:39.092Z,1010.63
2018-09-24T04:41:39.064Z,1010.64
2018-09-24T04:42:39.435Z,1010.67
2018-09-24T04:43:39.121Z,1010.66
2018-09-24T04:44:39.030Z,1010.67
2018-09-24T04:45:39.238Z,1010.70
2018-09-24T04:46:40.059Z,1010.69
2018-09-24T04:47:39.009Z,1010.74
2018-09-24T04:48:39.043Z,1010.74
2018-09-24T04:49:38.953Z,1010.74
2018-09-24T04:50:38.963Z,1010.77
2018-09-24T04:51:38.926Z,1010.80
2018-09-24T04:52:38.948Z,1010.78
2018-09-24T04:53:38.903Z,1010.85
2018-09-24T04:54:38.895Z,1010.88
2018-09-24T04:55:38.888Z,1010.87
2018-09-24T04:56:38.871Z,1010.89
2018-09-24T04:57:38.871Z,1010.95
2018-09-24T04:58:38.931Z,1010.95
2018-09-24T04:59:38.849Z,1010.92
2018-09-24T05:00:38.825Z,1010.94
2018-09-24T05:01:38.818Z,1010.96
2018-09-24T05:02:38.816Z,1010.98
2018-09-24T05:03:38.809Z,1011.01
2018-09-24T05:04:38.852Z,1010.99
2018-09-24T05:05:38.779Z,1010.95
2018-09-24T05:06:38.772Z,1011.01
2018-09-24T05:07:38.866Z,1011.01
2018-09-24T05:08:38.741Z,1011.01
2018-09-24T05:09:38.732Z,1010.99
2018-09-24T05:10:38.761Z,1011.02
2018-09-24T05:11:38.711Z,1011.07
2018-09-24T05:12:38.699Z,1011.07
2018-09-24T05:13:38.701Z,1011.08
2018-09-24T05:14:38.691Z,1011.12
2018-09-24T05:15:38.690Z,1011.16
2018-09-24T05:16:38.727Z,1011.16
2018-09-24T05:17:38.657Z,1011.20
2018-09-24T05:18:38.644Z,1011.19
2018-09-24T05:19:38.626Z,1011.21
2018-09-24T05:20:38.623Z,1011.25
2018-09-24T05:21:38.650Z,1011.26
2018-09-24T05:22:38.636Z,1011.25
2018-09-24T05:23:38.592Z,1011.26
2018-09-24T05:24:38.583Z,1011.20
2018-09-24T05:25:38.560Z,1011.24
2018-09-24T05:26:38.551Z,1011.29
2018-09-24T05:27:38.555Z,1011.27
2018-09-24T05:28:38.594Z,1011.23
2018-09-24T05:29:38.526Z,1011.30
2018-09-24T05:30:38.516Z,1011.33
2018-09-24T05:31:38.495Z,1011.32
2018-09-24T05:32:38.483Z,1011.33
2018-09-24T05:33:38.484Z,1011.32
2018-09-24T05:34:38.761Z,1011.38
2018-09-24T05:35:38.484Z,1011.37
2018-09-24T05:36:38.455Z,1011.35
2018-09-24T05:37:38.442Z,1011.37
2018-09-24T05:38:38.455Z,1011.36
2018-09-24T05:39:38.405Z,1011.40
2018-09-24T05:40:38.430Z,1011.42
2018-09-24T05:41:38.391Z,1011.45
2018-09-24T05:42:38.407Z,1011.42
2018-09-24T05:43:38.367Z,1011.46
2018-09-24T05:44:38.366Z,1011.44
2018-09-24T05:45:38.344Z,1011.48
2018-09-24T05:46:38.367Z,1011.52
2018-09-24T05:47:38.318Z,1011.54
2018-09-24T05:48:38.314Z,1011.58
2018-09-24T05:49:38.331Z,1011.56
2018-09-24T05:50:38.289Z,1011.55
2018-09-24T05:51:38.294Z,1011.61
2018-09-24T05:52:38.299Z,1011.55
2018-09-24T05:53:38.269Z,1011.54
2018-09-24T05:54:38.238Z,1011.58
2018-09-24T05:55:38.229Z,1011.64
2018-09-24T05:56:38.227Z,1011.65
2018-09-24T05:57:38.208Z,1011.68
2018-09-24T05:58:38.270Z,1011.71
2018-09-24T05:59:38.192Z,1011.74
2018-09-24T06:00:38.177Z,1011.72
2018-09-24T06:01:38.163Z,1011.74
2018-09-24T06:02:38.170Z,1011.82
2018-09-24T06:03:38.143Z,1011.76
2018-09-24T06:04:38.238Z,1011.84
2018-09-24T06:05:38.126Z,1011.77
2018-09-24T06:06:38.101Z,1011.83
2018-09-24T06:07:38.125Z,1011.81
2018-09-24T06:08:38.087Z,1011.88
2018-09-24T06:09:38.091Z,1011.87
2018-09-24T06:10:38.097Z,1011.90
2018-09-24T06:11:38.053Z,1011.92
2018-09-24T06:12:38.061Z,1011.99
2018-09-24T06:13:38.093Z,1011.99
2018-09-24T06:14:38.022Z,1011.96
2018-09-24T06:15:38.028Z,1012.03
2018-09-24T06:16:38.045Z,1011.98
2018-09-24T06:17:38.032Z,1012.03
2018-09-24T06:18:38.001Z,1012.09
2018-09-24T06:19:37.967Z,1012.10
2018-09-24T06:20:37.989Z,1012.11
2018-09-24T06:21:37.940Z,1012.11
2018-09-24T06:22:37.964Z,1012.17
2018-09-24T06:23:37.927Z,1012.14
2018-09-24T06:24:37.944Z,1012.19
2018-09-24T06:25:37.907Z,1012.18
2018-09-24T06:26:37.883Z,1012.21
2018-09-24T06:27:37.911Z,1012.24
2018-09-24T06:28:37.911Z,1012.21
2018-09-24T06:29:37.884Z,1012.19
2018-09-24T06:30:37.851Z,1012.20
2018-09-24T06:31:37.830Z,1012.19
2018-09-24T06:32:37.818Z,1012.18
2018-09-24T06:33:37.844Z,1012.27
2018-09-24T06:34:37.842Z,1012.23
2018-09-24T06:35:37.786Z,1012.20
2018-09-24T06:36:37.801Z,1012.28
2018-09-24T06:37:37.776Z,1012.24
2018-09-24T06:38:37.771Z,1012.29
2018-09-24T06:39:37.755Z,1012.31
2018-09-24T06:40:37.778Z,1012.29
2018-09-24T06:41:37.722Z,1012.32
2018-09-24T06:42:37.725Z,1012.37
2018-09-24T06:43:37.713Z,1012.37
2018-09-24T06:44:37.703Z,1012.41
2018-09-24T06:45:37.704Z,1012.40
2018-09-24T06:46:37.703Z,1012.42
2018-09-24T06:47:37.694Z,1012.45
2018-09-24T06:48:37.698Z,1012.45
2018-09-24T06:49:37.668Z,1012.43
2018-09-24T06:50:37.629Z,1012.41
2018-09-24T06:51:37.629Z,1012.48
2018-09-24T06:52:37.653Z,1012.42
2018-09-24T06:53:37.600Z,1012.48
2018-09-24T06:54:37.633Z,1012.47
2018-09-24T06:55:37.573Z,1012.52
2018-09-24T06:56:37.559Z,1012.49
2018-09-24T06:57:37.565Z,1012.54
2018-09-24T06:58:37.577Z,1012.49
2018-09-24T06:59:37.582Z,1012.50
2018-09-24T07:00:37.515Z,1012.52
2018-09-24T07:01:37.511Z,1012.51
2018-09-24T07:02:37.535Z,1012.48
2018-09-24T07:03:37.479Z,1012.58
2018-09-24T07:04:37.505Z,1012.58
2018-09-24T07:05:37.518Z,1012.59
2018-09-24T07:06:37.445Z,1012.58
2018-09-24T07:07:37.435Z,1012.60
2018-09-24T07:08:37.422Z,1012.60
2018-09-24T07:09:37.409Z,1012.61
2018-09-24T07:10:37.444Z,1012.61
2018-09-24T07:11:37.419Z,1012.60
2018-09-24T07:12:37.381Z,1012.68
2018-09-24T07:13:37.368Z,1012.63
2018-09-24T07:14:37.350Z,1012.65
2018-09-24T07:15:37.338Z,1012.67
2018-09-24T07:16:37.365Z,1012.64
2018-09-24T07:17:37.320Z,1012.69
2018-09-24T07:18:37.326Z,1012.66
2018-09-24T07:19:37.306Z,1012.71
2018-09-24T07:20:37.290Z,1012.74
2018-09-24T07:21:37.278Z,1012.73
2018-09-24T07:22:37.301Z,1012.73
2018-09-24T07:23:37.254Z,1012.70
2018-09-24T07:24:37.243Z,1012.67
2018-09-24T07:25:37.224Z,1012.77
2018-09-24T07:26:37.223Z,1012.80
2018-09-24T07:27:37.243Z,1012.75
2018-09-24T07:28:37.235Z,1012.82
2018-09-24T07:29:37.182Z,1012.83
2018-09-24T07:30:37.200Z,1012.85
2018-09-24T07:31:37.172Z,1012.88
2018-09-24T07:32:37.158Z,1012.91
2018-09-24T07:33:37.161Z,1012.87
2018-09-24T07:34:37.218Z,1012.87
2018-09-24T07:35:37.123Z,1012.88
2018-09-24T07:36:37.128Z,1012.94
2018-09-24T07:37:37.099Z,1012.90
2018-09-24T07:38:37.091Z,1012.98
2018-09-24T07:39:37.092Z,1013.01
2018-09-24T07:40:37.114Z,1013.01
2018-09-24T07:41:37.056Z,1013.01
2018-09-24T07:42:37.054Z,1013.04
2018-09-24T07:43:37.108Z,1013.07
2018-09-24T07:44:37.017Z,1013.06
2018-09-24T07:45:37.013Z,1013.06
2018-09-24T07:46:37.032Z,1013.10
2018-09-24T07:47:37.019Z,1013.15
2018-09-24T07:48:36.974Z,1013.15
2018-09-24T07:49:36.959Z,1013.20
2018-09-24T07:50:36.948Z,1013.21
2018-09-24T07:51:36.948Z,1013.20
2018-09-24T07:52:36.980Z,1013.28
2018-09-24T07:53:36.913Z,1013.22
2018-09-24T07:54:36.917Z,1013.24
2018-09-24T07:55:37.061Z,1013.25
2018-09-24T07:56:36.891Z,1013.29
2018-09-24T07:57:36.874Z,1013.33
2018-09-24T07:58:36.931Z,1013.33
2018-09-24T07:59:36.853Z,1013.36
2018-09-24T08:00:36.839Z,1013.37
2018-09-24T08:01:36.846Z,1013.43
2018-09-24T08:02:36.813Z,1013.45
2018-09-24T08:03:36.804Z,1013.51
2018-09-24T08:04:36.837Z,1013.49
2018-09-24T08:05:36.807Z,1013.48
2018-09-24T08:06:36.778Z,1013.50
2018-09-24T08:07:36.847Z,1013.57
2018-09-24T08:08:36.751Z,1013.55
2018-09-24T08:09:36.738Z,1013.57
2018-09-24T08:10:36.755Z,1013.67
2018-09-24T08:11:36.716Z,1013.65
2018-09-24T08:12:36.716Z,1013.69
2018-09-24T08:13:36.691Z,1013.77
2018-09-24T08:14:36.737Z,1013.62
2018-09-24T08:15:36.683Z,1013.65
2018-09-24T08:16:36.700Z,1013.66
2018-09-24T08:17:36.659Z,1013.68
2018-09-24T08:18:36.661Z,1013.67
2018-09-24T08:19:36.633Z,1013.72
2018-09-24T08:20:36.623Z,1013.74
2018-09-24T08:21:36.620Z,1013.73
2018-09-24T08:22:37.327Z,1013.81
2018-09-24T08:23:36.589Z,1013.79
2018-09-24T08:24:36.608Z,1013.75
2018-09-24T08:25:36.563Z,1013.83
2018-09-24T08:26:36.555Z,1013.78
2018-09-24T08:27:36.537Z,1013.72
2018-09-24T08:28:36.576Z,1013.74
2018-09-24T08:29:36.517Z,1013.75
2018-09-24T08:30:36.521Z,1013.75
2018-09-24T08:31:36.493Z,1013.73
2018-09-24T08:32:36.511Z,1013.75
2018-09-24T08:33:36.470Z,1013.76
2018-09-24T08:34:36.500Z,1013.83
2018-09-24T08:35:36.450Z,1013.82
2018-09-24T08:36:36.468Z,1013.83
2018-09-24T08:37:36.455Z,1013.86
2018-09-24T08:38:36.418Z,1013.82
2018-09-24T08:39:36.407Z,1013.87
2018-09-24T08:40:36.436Z,1013.93
2018-09-24T08:41:36.382Z,1013.95
2018-09-24T08:42:36.386Z,1013.90
2018-09-24T08:43:36.378Z,1013.87
2018-09-24T08:44:36.430Z,1013.91
2018-09-24T08:45:36.347Z,1013.94
2018-09-24T08:46:36.361Z,1013.91
2018-09-24T08:47:36.326Z,1013.95
2018-09-24T08:48:36.322Z,1013.97
2018-09-24T08:49:36.321Z,1013.95
2018-09-24T08:50:36.283Z,1013.97
2018-09-24T08:51:36.288Z,1014.00
2018-09-24T08:52:36.292Z,1013.97
2018-09-24T08:53:36.252Z,1013.96
2018-09-24T08:54:36.239Z,1013.98
2018-09-24T08:55:36.267Z,1014.00
2018-09-24T08:56:36.278Z,1013.99
2018-09-24T08:57:36.213Z,1013.97
2018-09-24T08:58:36.278Z,1014.02
2018-09-24T08:59:36.184Z,1013.93
2018-09-24T09:00:36.195Z,1013.94
2018-09-24T09:01:36.166Z,1013.98
2018-09-24T09:02:36.174Z,1013.96
2018-09-24T09:03:36.145Z,1013.96
2018-09-24T09:04:36.151Z,1013.96
2018-09-24T09:05:36.119Z,1013.95
2018-09-24T09:06:36.105Z,1013.95
2018-09-24T09:07:36.102Z,1013.92
2018-09-24T09:08:36.077Z,1013.93
2018-09-24T09:09:36.064Z,1013.89
2018-09-24T09:10:36.091Z,1013.85
2018-09-24T09:11:36.048Z,1013.96
2018-09-24T09:12:36.056Z,1013.97
2018-09-24T09:13:36.034Z,1013.96
2018-09-24T09:14:36.051Z,1013.96
2018-09-24T09:15:36.016Z,1013.98
2018-09-24T09:16:36.028Z,1013.97
2018-09-24T09:17:35.987Z,1014.01
2018-09-24T09:18:36.015Z,1013.99
2018-09-24T09:19:35.966Z,1013.97
2018-09-24T09:20:35.956Z,1013.99
2018-09-24T09:21:35.937Z,1013.93
2018-09-24T09:22:35.951Z,1013.99
2018-09-24T09:23:35.915Z,1014.03
2018-09-24T09:24:35.906Z,1014.05
2018-09-24T09:25:35.891Z,1014.05
2018-09-24T09:26:35.894Z,1014.05
2018-09-24T09:27:35.862Z,1014.11
2018-09-24T09:28:35.910Z,1014.07
2018-09-24T09:29:35.894Z,1014.16
2018-09-24T09:30:35.845Z,1014.17
2018-09-24T09:31:35.829Z,1014.16
2018-09-24T09:32:35.815Z,1014.15
2018-09-24T09:33:35.804Z,1014.15
2018-09-24T09:34:35.826Z,1014.19
2018-09-24T09:35:35.771Z,1014.15
2018-09-24T09:36:35.758Z,1014.21
2018-09-24T09:37:35.751Z,1014.22
2018-09-24T09:38:35.742Z,1014.16
2018-09-24T09:39:35.761Z,1014.21
2018-09-24T09:40:35.762Z,1014.22
2018-09-24T09:41:35.705Z,1014.24
2018-09-24T09:42:35.694Z,1014.22
2018-09-24T09:43:35.689Z,1014.23
2018-09-24T09:44:35.680Z,1014.21
2018-09-24T09:45:35.659Z,1014.33
2018-09-24T09:46:35.712Z,1014.36
2018-09-24T09:47:35.673Z,1014.38
2018-09-24T09:48:35.635Z,1014.36
2018-09-24T09:49:35.615Z,1014.29
2018-09-24T09:50:35.640Z,1014.36
2018-09-24T09:51:35.604Z,1014.32
2018-09-24T09:52:35.618Z,1014.30
2018-09-24T09:53:35.583Z,1014.34
2018-09-24T09:54:35.553Z,1014.28
2018-09-24T09:55:35.553Z,1014.23
2018-09-24T09:56:35.535Z,1014.31
2018-09-24T09:57:35.570Z,1014.27
2018-09-24T09:58:35.542Z,1014.30
2018-09-24T09:59:35.515Z,1014.25
2018-09-24T10:00:35.516Z,1014.23
2018-09-24T10:01:35.489Z,1014.25
2018-09-24T10:02:35.474Z,1014.18
2018-09-24T10:03:35.464Z,1014.23
2018-09-24T10:04:35.483Z,1014.28
2018-09-24T10:05:35.441Z,1014.18
2018-09-24T10:06:35.463Z,1014.18
2018-09-24T10:07:35.423Z,1014.20
2018-09-24T10:08:35.406Z,1014.14
2018-09-24T10:09:35.413Z,1014.13
2018-09-24T10:10:35.435Z,1014.17
2018-09-24T10:11:35.380Z,1014.13
2018-09-24T10:12:35.360Z,1014.06
2018-09-24T10:13:35.359Z,1014.05
2018-09-24T10:14:35.346Z,1014.04
2018-09-24T10:15:35.326Z,1013.99
2018-09-24T10:16:35.397Z,1014.02
2018-09-24T10:17:35.298Z,1014.00
2018-09-24T10:18:35.293Z,1014.07
2018-09-24T10:19:35.291Z,1014.04
2018-09-24T10:20:35.295Z,1014.13
2018-09-24T10:21:35.268Z,1014.20
2018-09-24T10:22:35.327Z,1014.28
2018-09-24T10:23:35.233Z,1014.30
2018-09-24T10:24:35.222Z,1014.40
2018-09-24T10:25:35.220Z,1014.44
2018-09-24T10:26:35.234Z,1014.50
2018-09-24T10:27:35.204Z,1014.44
2018-09-24T10:28:35.219Z,1014.52
2018-09-24T10:29:35.167Z,1014.63
2018-09-24T10:30:35.217Z,1014.62
2018-09-24T10:31:35.146Z,1014.75
2018-09-24T10:32:35.139Z,1014.69
2018-09-24T10:33:35.199Z,1014.73
2018-09-24T10:34:35.157Z,1014.65
2018-09-24T10:35:35.105Z,1014.70
2018-09-24T10:36:35.105Z,1014.63
2018-09-24T10:37:35.079Z,1014.60
2018-09-24T10:38:35.078Z,1014.60
2018-09-24T10:39:35.091Z,1014.57
2018-09-24T10:40:35.110Z,1014.57
2018-09-24T10:41:35.050Z,1014.61
2018-09-24T10:42:35.014Z,1014.59
2018-09-24T10:43:35.022Z,1014.65
2018-09-24T10:44:35.039Z,1014.70
2018-09-24T10:45:34.988Z,1014.64
2018-09-24T10:46:35.016Z,1014.64
2018-09-24T10:47:34.976Z,1014.62
2018-09-24T10:48:34.966Z,1014.63
2018-09-24T10:49:34.950Z,1014.67
2018-09-24T10:50:34.982Z,1014.60
2018-09-24T10:51:34.924Z,1014.55
2018-09-24T10:52:34.950Z,1014.56
2018-09-24T10:53:34.911Z,1014.53
2018-09-24T10:54:34.887Z,1014.48
2018-09-24T10:55:34.889Z,1014.59
2018-09-24T10:56:34.866Z,1014.54
2018-09-24T10:57:34.859Z,1014.63
2018-09-24T10:58:34.881Z,1014.56
2018-09-24T10:59:34.860Z,1014.58
2018-09-24T11:00:34.825Z,1014.63
2018-09-24T11:01:34.818Z,1014.65
2018-09-24T11:02:34.798Z,1014.50
2018-09-24T11:03:34.830Z,1014.59
2018-09-24T11:04:34.810Z,1014.64
2018-09-24T11:05:34.771Z,1014.55
2018-09-24T11:06:34.768Z,1014.63
2018-09-24T11:07:34.744Z,1014.57
2018-09-24T11:08:34.728Z,1014.62
2018-09-24T11:09:34.727Z,1014.64
2018-09-24T11:10:34.756Z,1014.56
2018-09-24T11:11:34.705Z,1014.57
2018-09-24T11:12:34.690Z,1014.51
2018-09-24T11:13:34.676Z,1014.61
2018-09-24T11:14:34.663Z,1014.54
2018-09-24T11:15:34.664Z,1014.55
2018-09-24T11:16:34.917Z,1014.55
2018-09-24T11:17:34.809Z,1014.53
2018-09-24T11:18:34.622Z,1014.57
2018-09-24T11:19:34.623Z,1014.54
2018-09-24T11:20:34.605Z,1014.48
2018-09-24T11:21:34.586Z,1014.47
2018-09-24T11:22:34.618Z,1014.50
2018-09-24T11:23:34.581Z,1014.47
2018-09-24T11:24:34.556Z,1014.43
2018-09-24T11:25:34.553Z,1014.42
2018-09-24T11:26:34.531Z,1014.52
2018-09-24T11:27:34.518Z,1014.47
2018-09-24T11:28:34.536Z,1014.46
2018-09-24T11:29:34.518Z,1014.43
2018-09-24T11:30:34.485Z,1014.45
2018-09-24T11:31:34.543Z,1014.47
2018-09-24T11:32:34.467Z,1014.45
2018-09-24T11:33:34.448Z,1014.44
2018-09-24T11:34:34.495Z,1014.40
2018-09-24T11:35:34.440Z,1014.45
2018-09-24T11:36:34.430Z,1014.40
2018-09-24T11:37:34.423Z,1014.43
2018-09-24T11:38:34.424Z,1014.39
2018-09-24T11:39:34.383Z,1014.53
2018-09-24T11:40:34.425Z,1014.39
2018-09-24T11:41:34.373Z,1014.45
2018-09-24T11:42:34.357Z,1014.38
2018-09-24T11:43:34.358Z,1014.51
2018-09-24T11:44:34.324Z,1014.42
2018-09-24T11:45:34.324Z,1014.47
2018-09-24T11:46:34.668Z,1014.40
2018-09-24T11:47:34.306Z,1014.42
2018-09-24T11:48:34.284Z,1014.44
2018-09-24T11:49:34.289Z,1014.51
2018-09-24T11:50:34.256Z,1014.54
2018-09-24T11:51:34.254Z,1014.34
2018-09-24T11:52:34.283Z,1014.52
2018-09-24T11:53:34.230Z,1014.41
2018-09-24T11:54:34.224Z,1014.41
2018-09-24T11:55:34.213Z,1014.47
2018-09-24T11:56:34.202Z,1014.40
2018-09-24T11:57:34.203Z,1014.39
2018-09-24T11:58:34.220Z,1014.35
2018-09-24T11:59:34.162Z,1014.31
2018-09-24T12:00:34.174Z,1014.44
2018-09-24T12:01:34.144Z,1014.38
2018-09-24T12:02:34.126Z,1014.42
2018-09-24T12:03:34.111Z,1014.28
2018-09-24T12:04:34.142Z,1014.31
2018-09-24T12:05:34.169Z,1014.42